Time;durP1;ratioP1;P1;durP2;ratioP2;P2;SDS_P1;SDS_P2;PMS_P1;PMS_P2;Temp;Humidity;BMP_temperature;BMP_pressure;BME280_temperature;BME280_humidity;BME280_pressure;Samples;Min_cycle;Max_cycle;Signal;HPM_P1;HPM_P2
2023/03/13 00:01:46;;;;;;;26.85;4.78;;;11.50;99.90;;;;;;4990391;28;20021;-75
2023/03/13 00:04:11;;;;;;;19.75;4.70;;;11.50;99.90;;;;;;4989529;28;20022;-75
2023/03/13 00:06:40;;;;;;;30.08;4.32;;;11.60;99.90;;;;;;4990331;28;20366;-75
2023/03/13 00:09:08;;;;;;;32.17;5.00;;;11.60;99.90;;;;;;4990096;28;20379;-74
2023/03/13 00:11:34;;;;;;;24.10;4.18;;;11.70;99.90;;;;;;4990867;28;20478;-75
2023/03/13 00:14:01;;;;;;;25.38;5.72;;;11.60;99.90;;;;;;4989386;28;20034;-74
2023/03/13 00:16:28;;;;;;;25.92;5.03;;;11.60;99.90;;;;;;4988096;28;20015;-74
2023/03/13 00:18:55;;;;;;;22.33;5.07;;;11.60;99.90;;;;;;4986187;28;20368;-75
2023/03/13 00:21:23;;;;;;;24.67;5.20;;;11.70;99.90;;;;;;4981525;28;20031;-74
2023/03/13 00:23:49;;;;;;;27.95;5.38;;;11.70;99.90;;;;;;4982153;28;20076;-74
2023/03/13 00:26:18;;;;;;;20.35;4.45;;;11.60;99.90;;;;;;4983052;28;20030;-74
2023/03/13 00:28:44;;;;;;;18.95;4.70;;;11.60;99.90;;;;;;4990886;28;20084;-74
2023/03/13 00:31:13;;;;;;;23.45;4.85;;;11.50;99.90;;;;;;4980142;28;20399;-74
2023/03/13 00:33:41;;;;;;;27.70;5.20;;;11.50;99.90;;;;;;4985649;28;20061;-74
2023/03/13 00:36:09;;;;;;;27.92;5.20;;;11.50;99.90;;;;;;4990281;28;20030;-74
2023/03/13 00:38:35;;;;;;;27.27;5.20;;;11.50;99.90;;;;;;4989871;28;20027;-75
2023/03/13 00:41:07;;;;;;;26.83;4.15;;;11.60;99.90;;;;;;4990471;28;20129;-75
2023/03/13 00:43:33;;;;;;;26.15;5.38;;;11.60;99.90;;;;;;4989604;28;20022;-74
2023/03/13 00:45:59;;;;;;;26.70;4.57;;;11.50;99.90;;;;;;4988806;28;20083;-74
2023/03/13 00:48:26;;;;;;;24.20;5.30;;;11.50;99.90;;;;;;4989308;28;20494;-74
2023/03/13 00:50:51;;;;;;;39.10;6.38;;;11.50;99.90;;;;;;4990319;28;20071;-74
2023/03/13 00:53:17;;;;;;;26.15;5.85;;;11.50;99.90;;;;;;4989071;28;20043;-74
2023/03/13 00:55:56;;;;;;;28.27;5.68;;;11.60;99.90;;;;;;4989514;28;20022;-74
2023/03/13 00:58:23;;;;;;;26.60;5.35;;;11.50;99.90;;;;;;4991057;28;20540;-75
2023/03/13 01:00:49;;;;;;;24.92;5.95;;;11.60;99.90;;;;;;4989563;28;20052;-75
2023/03/13 01:03:15;;;;;;;22.25;4.80;;;11.60;99.90;;;;;;4989323;28;20371;-75
2023/03/13 01:05:40;;;;;;;25.35;4.82;;;11.60;99.90;;;;;;4989869;28;20026;-75
2023/03/13 01:08:06;;;;;;;35.78;5.70;;;11.60;99.90;;;;;;5004823;28;20498;-75
2023/03/13 01:10:32;;;;;;;23.65;5.80;;;11.70;99.90;;;;;;4990261;28;20120;-75
2023/03/13 01:12:57;;;;;;;31.27;5.60;;;11.70;99.90;;;;;;4988819;28;20030;-74
2023/03/13 01:15:23;;;;;;;21.20;4.82;;;11.70;99.90;;;;;;4987813;28;20111;-75
2023/03/13 01:17:49;;;;;;;28.35;5.90;;;11.70;99.90;;;;;;4987939;28;20076;-75
2023/03/13 01:20:15;;;;;;;19.02;4.88;;;11.70;99.90;;;;;;4988942;28;20498;-75
2023/03/13 01:22:41;;;;;;;21.02;5.13;;;11.70;99.90;;;;;;4989313;28;20512;-75
2023/03/13 01:25:07;;;;;;;21.77;5.20;;;11.70;99.90;;;;;;4988188;28;20026;-75
2023/03/13 01:27:33;;;;;;;22.30;4.97;;;11.70;99.90;;;;;;4987286;28;20026;-75
2023/03/13 01:29:58;;;;;;;22.00;5.00;;;11.70;99.90;;;;;;4990094;28;20467;-75
2023/03/13 01:32:24;;;;;;;25.88;4.57;;;11.70;99.90;;;;;;4989364;28;20106;-75
2023/03/13 01:34:50;;;;;;;17.70;5.03;;;11.70;99.90;;;;;;4995507;28;20041;-74
2023/03/13 01:37:16;;;;;;;21.33;5.07;;;11.70;99.90;;;;;;4996487;28;20076;-75
2023/03/13 01:39:41;;;;;;;17.88;4.50;;;11.70;99.90;;;;;;4995107;28;20048;-74
2023/03/13 01:42:07;;;;;;;18.38;5.32;;;11.70;99.90;;;;;;4995585;28;20030;-74
2023/03/13 01:44:54;;;;;;;15.82;5.03;;;11.70;99.90;;;;;;4996095;28;20478;-74
2023/03/13 01:47:20;;;;;;;22.25;5.63;;;11.70;99.90;;;;;;4995379;28;20023;-74
2023/03/13 01:49:47;;;;;;;24.95;6.20;;;11.70;99.90;;;;;;4995098;28;20030;-74
2023/03/13 01:52:17;;;;;;;16.42;5.07;;;11.80;99.90;;;;;;4996157;28;20368;-74
2023/03/13 01:54:59;;;;;;;17.95;4.00;;;11.80;99.90;;;;;;4996161;28;20041;-75
2023/03/13 01:57:45;;;;;;;12.90;4.65;;;11.80;99.90;;;;;;4995516;28;20061;-74
2023/03/13 02:00:26;;;;;;;19.67;4.57;;;11.80;99.90;;;;;;4996140;28;20441;-74
2023/03/13 02:02:55;;;;;;;15.32;4.95;;;11.80;99.90;;;;;;4995910;28;20057;-74
2023/03/13 02:05:25;;;;;;;16.38;4.82;;;11.70;99.90;;;;;;4994177;28;20038;-74
2023/03/13 02:08:10;;;;;;;14.65;5.32;;;11.70;99.90;;;;;;4995731;28;20168;-74
2023/03/13 02:10:48;;;;;;;14.43;4.50;;;11.80;99.90;;;;;;4996208;28;20061;-75
2023/03/13 02:13:16;;;;;;;11.70;4.95;;;11.80;99.90;;;;;;4994549;28;20057;-75
2023/03/13 02:15:42;;;;;;;9.93;5.00;;;11.80;99.90;;;;;;4995363;28;20447;-74
2023/03/13 02:18:07;;;;;;;13.68;4.82;;;11.80;99.90;;;;;;4995339;28;20404;-74
2023/03/13 02:20:33;;;;;;;11.98;5.30;;;11.90;99.90;;;;;;4994888;28;20638;-74
2023/03/13 02:23:06;;;;;;;14.27;5.38;;;11.90;99.90;;;;;;4995780;28;20038;-75
2023/03/13 02:25:42;;;;;;;10.77;5.13;;;11.90;99.90;;;;;;4995751;28;20359;-75
2023/03/13 02:28:19;;;;;;;14.55;6.18;;;12.00;99.90;;;;;;4996011;28;20047;-75
2023/03/13 02:30:47;;;;;;;14.00;6.30;;;11.90;99.90;;;;;;4995934;28;20478;-75
2023/03/13 02:33:14;;;;;;;12.18;6.43;;;12.00;99.90;;;;;;4993653;28;20091;-74
2023/03/13 02:35:41;;;;;;;12.35;5.78;;;12.00;99.90;;;;;;4995737;28;20385;-75
2023/03/13 02:38:11;;;;;;;14.93;6.68;;;12.00;99.90;;;;;;4995296;28;20044;-76
2023/03/13 02:40:40;;;;;;;14.38;6.68;;;12.00;99.90;;;;;;4994468;28;20030;-75
2023/03/13 02:43:21;;;;;;;12.30;5.82;;;12.10;99.90;;;;;;4995311;28;20413;-75
2023/03/13 02:46:16;;;;;;;15.10;6.93;;;12.10;99.90;;;;;;4991507;28;20023;-74
2023/03/13 02:48:47;;;;;;;12.57;6.30;;;12.00;99.90;;;;;;4992635;28;20034;-74
2023/03/13 02:51:23;;;;;;;15.65;6.55;;;12.00;99.90;;;;;;4992718;28;20441;-74
2023/03/13 02:53:51;;;;;;;12.10;6.47;;;12.10;99.90;;;;;;4992325;28;20022;-75
2023/03/13 02:56:20;;;;;;;15.85;6.53;;;12.10;99.90;;;;;;4992469;28;20026;-75
2023/03/13 02:58:46;;;;;;;16.17;6.57;;;12.10;99.90;;;;;;4991636;28;20023;-75
2023/03/13 03:01:12;;;;;;;13.07;5.35;;;12.20;99.90;;;;;;4991507;28;20046;-74
2023/03/13 03:03:37;;;;;;;8.25;5.22;;;12.20;99.90;;;;;;4991109;28;20026;-74
2023/03/13 03:06:05;;;;;;;9.70;5.97;;;12.10;99.90;;;;;;4992253;28;20502;-74
2023/03/13 03:08:31;;;;;;;12.73;6.25;;;12.20;99.90;;;;;;4992183;28;20084;-74
2023/03/13 03:10:57;;;;;;;12.38;5.90;;;12.20;99.90;;;;;;4992521;28;20022;-74
2023/03/13 03:13:23;;;;;;;10.73;5.78;;;12.30;99.90;;;;;;4990720;28;20131;-74
2023/03/13 03:15:49;;;;;;;7.80;6.20;;;12.20;99.90;;;;;;4991766;28;20109;-74
2023/03/13 03:18:15;;;;;;;11.18;6.50;;;12.30;99.90;;;;;;4991964;28;20034;-74
2023/03/13 03:20:40;;;;;;;14.55;6.32;;;12.30;99.90;;;;;;4992215;28;20061;-74
2023/03/13 03:23:06;;;;;;;9.40;5.55;;;12.30;99.90;;;;;;4990889;28;20038;-74
2023/03/13 03:25:32;;;;;;;9.68;5.90;;;12.40;99.90;;;;;;4992099;28;20027;-74
2023/03/13 03:27:57;;;;;;;9.40;6.53;;;12.40;99.90;;;;;;4991719;28;20398;-74
2023/03/13 03:30:23;;;;;;;11.30;6.72;;;12.40;99.90;;;;;;4991751;28;20030;-74
2023/03/13 03:32:49;;;;;;;9.93;6.50;;;12.40;99.90;;;;;;4991029;28;20022;-74
2023/03/13 03:35:14;;;;;;;11.85;7.35;;;12.50;99.90;;;;;;4991227;28;20567;-74
2023/03/13 03:37:40;;;;;;;15.93;7.72;;;12.50;99.90;;;;;;4991613;28;20027;-76
2023/03/13 03:40:06;;;;;;;11.32;6.93;;;12.50;99.90;;;;;;4991845;28;20031;-74
2023/03/13 03:42:32;;;;;;;13.00;7.43;;;12.40;99.90;;;;;;4991895;28;20502;-74
2023/03/13 03:44:58;;;;;;;15.27;7.72;;;12.50;99.90;;;;;;4991876;28;20047;-74
2023/03/13 03:47:24;;;;;;;15.38;7.43;;;12.50;99.90;;;;;;4990571;28;20030;-74
2023/03/13 03:49:50;;;;;;;13.05;7.10;;;12.50;99.90;;;;;;4991968;28;20029;-76
2023/03/13 03:52:16;;;;;;;15.38;7.63;;;12.60;99.90;;;;;;4991386;28;20584;-76
2023/03/13 03:54:41;;;;;;;10.75;7.15;;;12.60;99.90;;;;;;4991976;28;20031;-75
2023/03/13 03:57:07;;;;;;;13.65;7.80;;;12.60;99.90;;;;;;4991468;28;20082;-75
2023/03/13 03:59:33;;;;;;;10.65;7.55;;;12.70;99.90;;;;;;4990548;28;20088;-76
2023/03/13 04:01:58;;;;;;;11.57;7.18;;;12.60;99.90;;;;;;4990947;28;20026;-75
2023/03/13 04:04:24;;;;;;;12.13;7.28;;;12.70;99.90;;;;;;4991525;28;20490;-75
2023/03/13 04:06:50;;;;;;;13.63;7.10;;;12.70;99.90;;;;;;4991179;28;20027;-76
2023/03/13 04:09:16;;;;;;;9.57;7.63;;;12.80;99.90;;;;;;4991217;28;20056;-75
2023/03/13 04:11:41;;;;;;;10.70;7.20;;;12.80;99.90;;;;;;4991085;28;20023;-75
2023/03/13 04:14:07;;;;;;;12.93;7.25;;;12.80;99.90;;;;;;4989609;28;20136;-76
2023/03/13 04:16:33;;;;;;;10.80;6.43;;;12.80;99.90;;;;;;4990196;28;20467;-75
2023/03/13 04:18:58;;;;;;;9.88;7.03;;;12.80;99.90;;;;;;4990247;28;20023;-75
2023/03/13 04:21:24;;;;;;;10.35;7.20;;;12.90;99.90;;;;;;4990831;28;20490;-75
2023/03/13 04:23:50;;;;;;;10.35;7.07;;;12.90;99.90;;;;;;4990631;28;20039;-76
2023/03/13 04:26:15;;;;;;;10.38;7.07;;;12.90;99.90;;;;;;4989804;28;20054;-75
2023/03/13 04:28:41;;;;;;;8.27;6.43;;;13.00;99.90;;;;;;4990975;28;20042;-76
2023/03/13 04:31:07;;;;;;;9.95;7.07;;;13.10;99.90;;;;;;4990053;28;20028;-76
2023/03/13 04:33:33;;;;;;;11.07;6.15;;;13.00;99.90;;;;;;4989484;28;20113;-75
2023/03/13 04:35:58;;;;;;;9.50;6.00;;;13.00;99.90;;;;;;4989065;28;20394;-76
2023/03/13 04:38:24;;;;;;;10.80;6.65;;;13.00;99.90;;;;;;4990307;28;20034;-75
2023/03/13 04:40:50;;;;;;;10.70;5.57;;;13.10;99.90;;;;;;4991083;28;20026;-75
2023/03/13 04:43:15;;;;;;;9.20;6.00;;;13.00;99.90;;;;;;4989447;28;20444;-75
2023/03/13 04:45:41;;;;;;;10.18;5.55;;;13.00;99.90;;;;;;4988977;28;20116;-76
2023/03/13 04:48:06;;;;;;;8.32;5.38;;;13.00;99.90;;;;;;4990892;28;20042;-75
2023/03/13 04:50:32;;;;;;;7.78;5.00;;;13.10;99.90;;;;;;4989686;28;20061;-75
2023/03/13 04:52:58;;;;;;;10.30;5.07;;;13.20;99.90;;;;;;4989879;28;20117;-75
2023/03/13 04:55:23;;;;;;;8.60;5.03;;;13.10;99.90;;;;;;4989338;28;20054;-75
2023/03/13 04:57:49;;;;;;;8.18;5.10;;;13.20;99.90;;;;;;4989843;28;20058;-75
2023/03/13 05:00:15;;;;;;;8.35;4.88;;;13.10;99.90;;;;;;4990188;28;20026;-75
2023/03/13 05:02:40;;;;;;;9.50;4.88;;;13.10;99.90;;;;;;4990590;28;20014;-75
2023/03/13 05:05:06;;;;;;;11.00;5.00;;;13.20;99.90;;;;;;4990454;28;20501;-75
2023/03/13 05:07:32;;;;;;;7.10;4.32;;;13.20;99.90;;;;;;4989156;28;20069;-76
2023/03/13 05:09:57;;;;;;;6.35;4.55;;;13.20;99.90;;;;;;4988513;28;20075;-76
2023/03/13 05:12:23;;;;;;;7.97;3.85;;;13.20;99.90;;;;;;4990400;28;20026;-76
2023/03/13 05:14:49;;;;;;;5.90;3.97;;;13.20;99.90;;;;;;5004648;28;20159;-76
2023/03/13 05:17:16;;;;;;;5.35;3.70;;;13.20;99.90;;;;;;4989547;28;20026;-75
2023/03/13 05:19:42;;;;;;;8.82;4.50;;;13.30;99.90;;;;;;4987799;28;20033;-75
2023/03/13 05:22:08;;;;;;;8.93;4.07;;;13.30;99.90;;;;;;4990317;28;20053;-76
2023/03/13 05:24:33;;;;;;;6.15;3.92;;;13.30;99.90;;;;;;4989180;28;20676;-76
2023/03/13 05:26:59;;;;;;;8.68;3.88;;;13.30;99.90;;;;;;4987836;28;20033;-76
2023/03/13 05:29:25;;;;;;;7.55;4.70;;;13.40;99.90;;;;;;4989919;28;20043;-76
2023/03/13 05:31:51;;;;;;;4.93;3.75;;;13.40;99.90;;;;;;4988655;28;20026;-76
2023/03/13 05:34:17;;;;;;;6.00;3.67;;;13.40;99.90;;;;;;4988190;28;20505;-75
2023/03/13 05:36:42;;;;;;;7.32;3.97;;;13.40;99.90;;;;;;4987947;28;20037;-76
2023/03/13 05:39:08;;;;;;;8.18;3.90;;;13.40;99.90;;;;;;4988243;28;20023;-76
2023/03/13 05:41:34;;;;;;;9.05;3.80;;;13.40;99.90;;;;;;4988323;28;20394;-76
2023/03/13 05:43:59;;;;;;;3.63;3.17;;;13.40;99.90;;;;;;4990225;28;20425;-76
2023/03/13 05:46:25;;;;;;;7.50;3.10;;;13.40;99.90;;;;;;4990167;28;20429;-76
2023/03/13 05:48:51;;;;;;;7.03;3.17;;;13.40;99.90;;;;;;4989869;28;20112;-75
2023/03/13 05:51:17;;;;;;;9.70;3.50;;;13.40;99.90;;;;;;4990063;28;20034;-76
2023/03/13 05:53:43;;;;;;;5.63;3.17;;;13.40;99.90;;;;;;4989890;28;20475;-76
2023/03/13 05:56:09;;;;;;;7.40;3.00;;;13.40;99.90;;;;;;5005212;28;20025;-76
2023/03/13 05:58:35;;;;;;;8.50;3.42;;;13.40;99.90;;;;;;4989903;28;20230;-76
2023/03/13 06:01:11;;;;;;;7.07;3.42;;;13.30;99.90;;;;;;4986342;28;20075;-76
2023/03/13 06:03:37;;;;;;;7.03;3.05;;;13.40;99.90;;;;;;4973480;28;20038;-75
2023/03/13 06:06:03;;;;;;;7.35;2.72;;;13.40;99.90;;;;;;4986540;28;20031;-75
2023/03/13 06:08:29;;;;;;;8.77;3.33;;;13.50;99.90;;;;;;4989670;28;20569;-76
2023/03/13 06:10:59;;;;;;;10.77;3.45;;;13.50;99.90;;;;;;4990055;28;20110;-75
2023/03/13 06:13:25;;;;;;;7.28;2.75;;;13.50;99.90;;;;;;4989699;28;20079;-75
2023/03/13 06:15:55;;;;;;;10.82;3.00;;;13.50;99.90;;;;;;4990227;28;20102;-76
2023/03/13 06:18:21;;;;;;;9.20;3.28;;;13.50;99.90;;;;;;4988347;28;20018;-76
2023/03/13 06:20:48;;;;;;;6.25;3.10;;;13.60;99.90;;;;;;4992386;28;20031;-75
2023/03/13 06:23:14;;;;;;;6.75;2.92;;;13.60;99.90;;;;;;4992945;28;20495;-75
2023/03/13 06:25:40;;;;;;;10.65;3.10;;;13.50;99.90;;;;;;5008167;28;20030;-76
2023/03/13 06:28:06;;;;;;;5.75;2.55;;;13.60;99.90;;;;;;4976511;28;20047;-76
2023/03/13 06:30:31;;;;;;;7.60;2.70;;;13.60;99.90;;;;;;4987705;28;20023;-75
2023/03/13 06:32:57;;;;;;;6.90;3.25;;;13.60;99.90;;;;;;4988294;28;20044;-75
2023/03/13 06:35:23;;;;;;;4.00;2.80;;;13.60;99.90;;;;;;4979243;28;20031;-75
2023/03/13 06:37:49;;;;;;;7.22;3.05;;;13.60;99.90;;;;;;4972760;28;20046;-76
2023/03/13 06:40:15;;;;;;;7.28;3.10;;;13.60;99.90;;;;;;4989454;28;20037;-76
2023/03/13 06:42:40;;;;;;;8.68;3.60;;;13.70;99.90;;;;;;4994274;28;20102;-76
2023/03/13 06:45:07;;;;;;;11.40;3.40;;;13.70;99.90;;;;;;4990460;28;20031;-75
2023/03/13 06:47:32;;;;;;;10.32;3.08;;;13.70;99.90;;;;;;4996092;28;20511;-75
2023/03/13 06:49:58;;;;;;;10.52;3.03;;;13.80;99.90;;;;;;4993546;28;20026;-75
2023/03/13 06:52:24;;;;;;;9.35;3.90;;;13.70;99.90;;;;;;5003195;28;20501;-75
2023/03/13 06:54:50;;;;;;;7.93;3.53;;;13.70;99.90;;;;;;4994342;28;20451;-75
2023/03/13 06:57:15;;;;;;;14.27;3.33;;;13.70;99.90;;;;;;4997418;28;20063;-75
2023/03/13 06:59:41;;;;;;;8.27;3.42;;;13.70;99.90;;;;;;4994368;28;20430;-75
2023/03/13 07:02:10;;;;;;;10.55;3.78;;;13.80;99.90;;;;;;4990692;28;20084;-75
2023/03/13 07:04:36;;;;;;;9.57;3.20;;;13.80;99.90;;;;;;4987570;28;20049;-76
2023/03/13 07:07:02;;;;;;;10.05;3.38;;;13.70;99.90;;;;;;4996219;28;20058;-75
2023/03/13 07:09:27;;;;;;;6.95;2.88;;;13.70;99.90;;;;;;4995254;28;20121;-76
2023/03/13 07:11:53;;;;;;;7.82;2.80;;;13.70;99.90;;;;;;4988255;28;20233;-75
2023/03/13 07:14:19;;;;;;;5.43;3.10;;;13.80;99.90;;;;;;4991819;28;20022;-75
2023/03/13 07:16:45;;;;;;;8.82;3.92;;;13.80;99.90;;;;;;4977849;28;20563;-73
2023/03/13 07:19:11;;;;;;;9.27;2.83;;;13.80;99.90;;;;;;4991796;28;20026;-74
2023/03/13 07:21:36;;;;;;;7.88;3.10;;;13.80;99.90;;;;;;4991315;28;20088;-74
2023/03/13 07:24:02;;;;;;;7.47;3.33;;;13.90;99.90;;;;;;4990866;28;20071;-74
2023/03/13 07:26:28;;;;;;;13.27;3.88;;;13.90;99.90;;;;;;4992124;28;20097;-74
2023/03/13 07:28:55;;;;;;;8.52;3.10;;;13.90;99.90;;;;;;4991242;28;20126;-75
2023/03/13 07:31:22;;;;;;;9.10;3.20;;;13.90;99.90;;;;;;4987376;28;20069;-75
2023/03/13 07:33:51;;;;;;;9.07;3.17;;;13.90;99.90;;;;;;4985467;28;20026;-75
2023/03/13 07:36:16;;;;;;;12.38;3.28;;;13.90;99.90;;;;;;4992015;28;20068;-75
2023/03/13 07:38:46;;;;;;;8.38;2.95;;;14.00;99.90;;;;;;4989736;28;20030;-75
2023/03/13 07:41:15;;;;;;;9.40;3.38;;;14.00;99.90;;;;;;4990041;28;20101;-74
2023/03/13 07:43:41;;;;;;;11.15;3.72;;;14.00;99.90;;;;;;4990839;28;20372;-75
2023/03/13 07:46:09;;;;;;;12.88;3.75;;;14.00;99.90;;;;;;4987795;28;20056;-75
2023/03/13 07:48:40;;;;;;;8.63;3.10;;;14.00;99.90;;;;;;4990460;28;20034;-76
2023/03/13 07:51:09;;;;;;;7.75;3.10;;;14.00;99.90;;;;;;4991366;28;20064;-75
2023/03/13 07:53:35;;;;;;;7.65;3.20;;;14.10;99.90;;;;;;4990289;28;20045;-75
2023/03/13 07:56:07;;;;;;;9.80;3.22;;;14.10;99.90;;;;;;4991564;28;20018;-74
2023/03/13 07:58:35;;;;;;;15.75;3.13;;;14.20;99.90;;;;;;4990013;28;20030;-75
2023/03/13 08:01:07;;;;;;;10.18;3.42;;;14.10;99.90;;;;;;4990744;28;20019;-77
2023/03/13 08:03:32;;;;;;;10.77;3.15;;;14.10;99.90;;;;;;4990742;28;20034;-74
2023/03/13 08:06:00;;;;;;;10.40;3.15;;;14.10;99.90;;;;;;4991562;28;20423;-74
2023/03/13 08:08:26;;;;;;;10.43;3.47;;;14.10;99.90;;;;;;4990987;28;20038;-75
2023/03/13 08:10:52;;;;;;;8.20;3.65;;;14.10;99.90;;;;;;4989955;28;20105;-75
2023/03/13 08:13:17;;;;;;;11.40;3.20;;;14.20;99.90;;;;;;4990738;28;20073;-74
2023/03/13 08:15:43;;;;;;;10.70;2.88;;;14.30;99.90;;;;;;4990963;28;20097;-75
2023/03/13 08:18:09;;;;;;;7.75;2.88;;;14.40;99.90;;;;;;4988958;28;20575;-74
2023/03/13 08:20:38;;;;;;;5.72;2.90;;;14.50;99.90;;;;;;4990110;28;20101;-73
2023/03/13 08:23:03;;;;;;;13.55;3.20;;;14.60;99.90;;;;;;4990926;28;20046;-75
2023/03/13 08:25:29;;;;;;;8.93;2.88;;;14.70;99.90;;;;;;4990837;28;20395;-75
2023/03/13 08:27:55;;;;;;;8.20;2.80;;;14.70;99.90;;;;;;4974142;28;20042;-75
2023/03/13 08:30:20;;;;;;;9.77;2.45;;;14.70;99.90;;;;;;4977962;28;20034;-76
2023/03/13 08:32:46;;;;;;;12.02;3.20;;;14.70;99.90;;;;;;4975044;28;20093;-75
2023/03/13 08:35:12;;;;;;;9.60;2.85;;;14.70;99.90;;;;;;4968970;28;20486;-74
2023/03/13 08:37:37;;;;;;;8.60;2.88;;;14.80;99.90;;;;;;4982576;28;20549;-74
2023/03/13 08:40:09;;;;;;;10.90;3.30;;;14.90;99.90;;;;;;5017207;28;20057;-74
2023/03/13 08:42:35;;;;;;;7.22;2.60;;;15.00;99.90;;;;;;5015426;28;20114;-74
2023/03/13 08:45:01;;;;;;;7.18;2.40;;;15.10;99.90;;;;;;4991092;28;20024;-74
2023/03/13 08:47:26;;;;;;;9.98;2.85;;;15.10;99.90;;;;;;5015250;28;20027;-74
2023/03/13 08:49:53;;;;;;;6.15;2.55;;;15.20;99.90;;;;;;5006305;28;20039;-75
2023/03/13 08:52:19;;;;;;;10.10;2.85;;;15.30;99.90;;;;;;5002105;28;20076;-75
2023/03/13 08:54:47;;;;;;;6.88;2.40;;;15.40;99.90;;;;;;5007176;28;20028;-76
2023/03/13 08:57:14;;;;;;;6.03;2.42;;;15.40;99.90;;;;;;5033800;28;20119;-74
2023/03/13 08:59:40;;;;;;;8.48;2.33;;;15.60;99.90;;;;;;4995667;28;20031;-75
2023/03/13 09:02:05;;;;;;;7.65;2.42;;;15.50;99.90;;;;;;5031926;28;20026;-76
2023/03/13 09:04:31;;;;;;;8.55;2.38;;;15.60;99.90;;;;;;5012219;28;20030;-75
2023/03/13 09:06:57;;;;;;;8.65;2.58;;;15.70;99.90;;;;;;5012827;28;20034;-77
2023/03/13 09:09:22;;;;;;;9.02;2.35;;;15.70;99.90;;;;;;5013280;28;20026;-74
2023/03/13 09:11:48;;;;;;;6.30;2.35;;;15.80;99.90;;;;;;5014868;28;20917;-75
2023/03/13 09:14:14;;;;;;;9.57;3.13;;;15.80;99.90;;;;;;5022670;28;20032;-75
2023/03/13 09:16:40;;;;;;;9.55;3.65;;;15.80;99.90;;;;;;5012700;28;20111;-74
2023/03/13 09:19:05;;;;;;;8.00;2.80;;;15.90;99.90;;;;;;5028625;28;20057;-75
2023/03/13 09:21:33;;;;;;;5.40;3.00;;;15.90;99.90;;;;;;5010157;28;20034;-75
2023/03/13 09:24:00;;;;;;;7.78;2.83;;;15.90;99.90;;;;;;5017025;28;20052;-75
2023/03/13 09:26:27;;;;;;;5.20;2.40;;;15.90;99.90;;;;;;5002668;28;20433;-75
2023/03/13 09:28:53;;;;;;;8.27;2.63;;;15.90;99.90;;;;;;5009107;28;20050;-74
2023/03/13 09:31:24;;;;;;;3.05;2.20;;;15.80;99.90;;;;;;4998754;28;20390;-75
2023/03/13 09:33:50;;;;;;;8.90;2.67;;;15.90;99.90;;;;;;4994644;28;20105;-74
2023/03/13 09:36:17;;;;;;;3.67;2.15;;;15.90;99.90;;;;;;5015222;28;20030;-74
2023/03/13 09:38:42;;;;;;;5.63;2.33;;;16.00;99.90;;;;;;5021774;28;20452;-74
2023/03/13 09:41:25;;;;;;;4.88;2.13;;;16.10;99.90;;;;;;5005969;28;20055;-76
2023/03/13 09:44:09;;;;;;;5.93;2.30;;;16.10;99.90;;;;;;4992339;28;20027;-75
2023/03/13 09:47:04;;;;;;;4.72;2.10;;;16.20;99.90;;;;;;5005172;28;20036;-74
2023/03/13 09:49:35;;;;;;;4.18;2.10;;;16.20;99.90;;;;;;4998502;28;20048;-75
2023/03/13 09:52:17;;;;;;;6.05;2.42;;;16.30;99.90;;;;;;5014103;28;20052;-74
2023/03/13 09:55:04;;;;;;;6.32;1.80;;;16.30;99.90;;;;;;5027135;28;20028;-75
2023/03/13 09:57:34;;;;;;;4.57;1.83;;;16.20;99.90;;;;;;5019059;28;20023;-74
2023/03/13 10:00:12;;;;;;;4.15;1.95;;;16.20;99.90;;;;;;5011182;28;20024;-75
2023/03/13 10:02:41;;;;;;;1.73;1.60;;;16.40;99.90;;;;;;5004005;28;20027;-75
2023/03/13 10:05:16;;;;;;;4.00;1.77;;;16.30;99.90;;;;;;5008547;28;20026;-75
2023/03/13 10:07:42;;;;;;;2.65;1.55;;;16.60;99.90;;;;;;5016132;28;20135;-75
2023/03/13 10:10:47;;;;;;;4.68;2.17;;;16.60;99.90;;;;;;5031749;28;20523;-75
2023/03/13 10:13:21;;;;;;;2.30;1.67;;;16.60;99.90;;;;;;5018008;28;20085;-75
2023/03/13 10:15:58;;;;;;;4.32;1.70;;;16.60;99.90;;;;;;5014995;28;20028;-75
2023/03/13 10:18:25;;;;;;;3.65;1.80;;;16.90;99.90;;;;;;5031596;28;20024;-75
2023/03/13 10:20:55;;;;;;;7.00;1.67;;;17.20;99.90;;;;;;5034794;28;20034;-75
2023/03/13 10:23:32;;;;;;;3.45;1.52;;;17.20;99.90;;;;;;5005699;28;20034;-75
2023/03/13 10:25:58;;;;;;;4.13;1.40;;;17.20;99.90;;;;;;5011951;28;20025;-75
2023/03/13 10:28:25;;;;;;;3.30;1.90;;;17.30;99.90;;;;;;4995880;28;20038;-76
2023/03/13 10:31:21;;;;;;;5.47;1.60;;;17.60;99.90;;;;;;5003971;28;20021;-75
2023/03/13 10:33:47;;;;;;;2.08;1.48;;;17.70;99.90;;;;;;5029295;28;20030;-75
2023/03/13 10:36:13;;;;;;;2.47;1.70;;;17.60;99.90;;;;;;5020069;28;20042;-75
2023/03/13 10:38:49;;;;;;;6.50;1.75;;;17.60;99.90;;;;;;5032257;28;20090;-75
2023/03/13 10:41:34;;;;;;;3.88;1.80;;;17.60;99.90;;;;;;5014098;28;20164;-74
2023/03/13 10:44:03;;;;;;;4.80;2.00;;;17.50;99.90;;;;;;5014666;28;20134;-74
2023/03/13 10:46:38;;;;;;;3.13;1.60;;;17.40;99.90;;;;;;5017628;28;20027;-74
2023/03/13 10:49:14;;;;;;;4.95;1.77;;;17.40;99.90;;;;;;5001379;28;20034;-74
2023/03/13 10:51:49;;;;;;;6.10;1.48;;;17.40;99.90;;;;;;5019869;28;20056;-74
2023/03/13 10:54:21;;;;;;;3.25;1.33;;;17.30;99.90;;;;;;5004085;28;20030;-74
2023/03/13 10:56:47;;;;;;;3.72;1.88;;;17.20;99.90;;;;;;5001915;28;20522;-74
2023/03/13 10:59:26;;;;;;;4.63;1.80;;;17.30;99.90;;;;;;5004395;28;20018;-75
2023/03/13 11:01:57;;;;;;;4.15;1.42;;;17.20;99.90;;;;;;5011055;28;20847;-74
2023/03/13 11:04:34;;;;;;;3.85;1.73;;;17.10;99.90;;;;;;5015146;28;20017;-74
2023/03/13 11:07:25;;;;;;;4.13;1.50;;;17.10;99.90;;;;;;5002703;28;20382;-75
2023/03/13 11:10:23;;;;;;;2.58;1.35;;;17.10;99.90;;;;;;5021270;28;20036;-75
2023/03/13 11:12:54;;;;;;;4.15;1.40;;;17.20;99.90;;;;;;5024310;28;20044;-75
2023/03/13 11:15:20;;;;;;;6.20;1.67;;;17.20;99.90;;;;;;5005090;28;20026;-75
2023/03/13 11:18:02;;;;;;;2.20;1.20;;;17.30;99.90;;;;;;5019276;28;20501;-75
2023/03/13 11:20:35;;;;;;;3.75;1.65;;;17.30;99.90;;;;;;5014128;28;20025;-74
2023/03/13 11:23:10;;;;;;;1.90;1.38;;;17.30;99.90;;;;;;5009774;28;20034;-75
2023/03/13 11:25:46;;;;;;;3.70;1.33;;;17.30;99.90;;;;;;5004942;28;20430;-75
2023/03/13 11:28:27;;;;;;;2.13;1.15;;;17.30;99.90;;;;;;5025364;28;20082;-75
2023/03/13 11:31:14;;;;;;;4.87;1.23;;;17.30;99.90;;;;;;5027676;28;20377;-75
2023/03/13 11:34:08;;;;;;;2.72;1.35;;;17.40;99.90;;;;;;5017400;28;20397;-75
2023/03/13 11:37:02;;;;;;;5.88;1.52;;;17.30;99.90;;;;;;5018457;28;20484;-75
2023/03/13 11:39:52;;;;;;;2.50;1.35;;;17.30;99.90;;;;;;5012785;28;20106;-76
2023/03/13 11:42:36;;;;;;;4.55;1.92;;;17.20;99.90;;;;;;5016355;28;20040;-75
2023/03/13 11:45:25;;;;;;;5.72;1.45;;;17.20;99.90;;;;;;5005365;28;20016;-75
2023/03/13 11:48:07;;;;;;;2.35;1.40;;;17.10;99.90;;;;;;5012144;28;20030;-75
2023/03/13 11:50:32;;;;;;;2.00;1.25;;;17.20;99.90;;;;;;5000320;28;20500;-75
2023/03/13 11:53:14;;;;;;;1.48;1.33;;;17.20;99.90;;;;;;4996776;28;20042;-77
2023/03/13 11:55:49;;;;;;;3.83;1.03;;;17.20;99.90;;;;;;5008456;28;20031;-79
2023/03/13 11:58:20;;;;;;;3.40;1.17;;;17.20;99.90;;;;;;5004657;28;20316;-77
2023/03/13 12:01:07;;;;;;;2.85;1.20;;;17.30;99.90;;;;;;5012885;28;20080;-78
2023/03/13 12:03:53;;;;;;;2.88;1.00;;;17.30;99.90;;;;;;5019378;28;20031;-77
2023/03/13 12:06:36;;;;;;;2.92;1.17;;;17.30;99.90;;;;;;4980786;28;20128;-77
2023/03/13 12:09:14;;;;;;;3.67;1.33;;;17.30;99.90;;;;;;5004296;28;20077;-76
2023/03/13 12:11:58;;;;;;;2.58;1.00;;;17.30;99.90;;;;;;5007576;28;20032;-75
2023/03/13 12:14:52;;;;;;;2.90;1.20;;;17.30;99.90;;;;;;5002275;28;20119;-76
2023/03/13 12:17:30;;;;;;;2.38;1.17;;;17.40;99.90;;;;;;5009457;28;20045;-76
2023/03/13 12:20:08;;;;;;;3.00;1.50;;;17.70;99.90;;;;;;4996001;28;20109;-76
2023/03/13 12:23:05;;;;;;;5.68;1.40;;;17.90;99.90;;;;;;5022240;28;20027;-76
2023/03/13 12:25:38;;;;;;;2.28;1.13;;;18.00;99.90;;;;;;5019827;28;20054;-72
2023/03/13 12:28:32;;;;;;;4.55;1.30;;;17.90;99.90;;;;;;4992706;28;20412;-74
2023/03/13 12:31:15;;;;;;;2.92;1.25;;;17.80;99.90;;;;;;5001163;28;20039;-73
2023/03/13 12:33:44;;;;;;;2.95;1.05;;;17.80;99.90;;;;;;5008880;28;20076;-73
2023/03/13 12:36:30;;;;;;;1.63;1.23;;;18.00;99.90;;;;;;4999238;28;20424;-74
2023/03/13 12:39:13;;;;;;;3.22;1.10;;;18.20;99.90;;;;;;5011266;28;20023;-74
2023/03/13 12:41:46;;;;;;;4.90;1.23;;;18.30;99.90;;;;;;5001912;28;20035;-75
2023/03/13 12:44:19;;;;;;;2.83;1.00;;;18.30;99.90;;;;;;5002780;28;20107;-75
2023/03/13 12:47:28;;;;;;;2.58;0.85;;;18.50;99.90;;;;;;5021269;28;20039;-75
2023/03/13 12:50:18;;;;;;;3.08;1.08;;;18.50;99.90;;;;;;5024805;28;20049;-73
2023/03/13 12:53:13;;;;;;;3.38;1.30;;;18.20;99.90;;;;;;5027667;28;20045;-75
2023/03/13 12:56:01;;;;;;;1.20;0.70;;;18.10;99.90;;;;;;5002933;28;20018;-76
2023/03/13 12:58:52;;;;;;;3.65;1.17;;;18.00;99.90;;;;;;4988966;28;20026;-74